Time;durP1;ratioP1;P1;durP2;ratioP2;P2;SDS_P1;SDS_P2;PMS_P1;PMS_P2;Temp;Humidity;BMP_temperature;BMP_pressure;BME280_temperature;BME280_humidity;BME280_pressure;Samples;Min_cycle;Max_cycle;Signal;HPM_P1;HPM_P2
2022/11/05 00:16:45;;;;;;;2.13;1.60;;;;;;;8.79;87.48;101140.00;6071355;29;20323;-73
2022/11/05 00:20:08;;;;;;;3.40;2.20;;;;;;;8.74;86.52;101150.25;6081528;29;20243;-73
2022/11/05 00:27:07;;;;;;;3.33;2.03;;;;;;;8.76;87.00;101151.81;6054696;29;20240;-72
2022/11/05 00:30:30;;;;;;;2.07;1.70;;;;;;;8.78;86.62;101157.09;6079832;29;20229;-74
2022/11/05 00:33:50;;;;;;;4.00;1.80;;;;;;;8.83;86.64;101162.97;6081171;29;20256;-72
2022/11/05 00:37:11;;;;;;;2.73;1.77;;;;;;;8.88;86.46;101166.16;6083991;29;20229;-74
2022/11/05 00:40:32;;;;;;;8.23;1.70;;;;;;;8.82;86.96;101167.47;6087012;29;20504;-74
2022/11/05 00:51:11;;;;;;;6.40;2.23;;;;;;;8.82;86.51;101178.22;6082960;29;20260;-73
2022/11/05 00:54:32;;;;;;;2.17;1.77;;;;;;;8.87;86.64;101175.19;6069763;29;20292;-74
2022/11/05 00:57:53;;;;;;;4.27;2.20;;;;;;;8.79;86.48;101180.31;6068471;29;20236;-73
2022/11/05 01:01:14;;;;;;;2.03;1.40;;;;;;;8.81;86.21;101184.59;6077075;29;20769;-73
2022/11/05 01:04:36;;;;;;;3.47;2.00;;;;;;;8.77;86.55;101187.63;6053858;29;20228;-73
2022/11/05 01:07:57;;;;;;;5.17;1.83;;;;;;;8.76;86.65;101191.31;6085015;29;20693;-73
2022/11/05 01:11:32;;;;;;;5.67;2.70;;;;;;;8.69;86.31;101188.22;6086721;29;20233;-74
2022/11/05 01:14:53;;;;;;;9.87;3.00;;;;;;;8.64;86.99;101189.53;6088908;29;20232;-73
2022/11/05 01:18:14;;;;;;;5.60;2.47;;;;;;;8.66;86.43;101191.13;6087538;29;20319;-73
2022/11/05 01:21:36;;;;;;;2.87;1.93;;;;;;;8.62;86.76;101199.53;6089758;29;20228;-73
2022/11/05 01:24:57;;;;;;;2.67;2.47;;;;;;;8.68;86.74;101209.81;6077453;29;20245;-72
2022/11/05 01:28:18;;;;;;;8.80;1.97;;;;;;;8.51;86.66;101210.25;6078074;29;20221;-73
2022/11/05 01:31:39;;;;;;;3.87;2.20;;;;;;;8.52;86.90;101201.22;6081164;29;20236;-73
2022/11/05 01:35:00;;;;;;;7.93;2.53;;;;;;;8.49;86.86;101201.47;6076124;29;20595;-73
2022/11/05 01:38:22;;;;;;;4.20;2.23;;;;;;;8.52;86.34;101193.16;6077984;29;20240;-73
2022/11/05 01:41:43;;;;;;;7.87;2.20;;;;;;;8.51;87.01;101196.81;6085431;29;20300;-73
2022/11/05 01:45:12;;;;;;;4.20;2.37;;;;;;;8.56;86.22;101200.88;6078836;29;20236;-73
2022/11/05 01:48:35;;;;;;;3.53;1.93;;;;;;;8.58;86.36;101200.75;6075318;29;20252;-72
2022/11/05 01:51:59;;;;;;;10.17;3.73;;;;;;;8.51;86.26;101200.34;6078974;29;20228;-73
2022/11/05 01:55:26;;;;;;;4.83;2.30;;;;;;;8.43;86.04;101209.94;6075603;29;21490;-73
2022/11/05 01:58:52;;;;;;;2.20;2.00;;;;;;;8.44;86.63;101209.84;6074923;29;20245;-73
2022/11/05 02:02:13;;;;;;;3.13;2.17;;;;;;;8.41;86.27;101202.00;6080559;29;20323;-73
2022/11/05 02:05:34;;;;;;;7.80;4.17;;;;;;;8.31;87.31;101206.34;6088005;29;20237;-74
2022/11/05 02:09:00;;;;;;;6.03;2.80;;;;;;;8.28;87.16;101211.94;6075751;29;20236;-73
2022/11/05 02:12:23;;;;;;;3.37;2.23;;;;;;;8.29;86.95;101212.81;6086744;29;20501;-73
2022/11/05 02:15:54;;;;;;;3.90;1.80;;;;;;;8.35;86.39;101206.97;6089619;29;20228;-73
2022/11/05 02:19:44;;;;;;;6.53;2.13;;;;;;;8.31;87.41;101211.72;6074974;29;20247;-73
2022/11/05 02:23:32;;;;;;;3.73;1.97;;;;;;;8.26;86.10;101213.88;6071486;29;20268;-74
2022/11/05 02:27:16;;;;;;;6.83;1.97;;;;;;;8.22;86.77;101207.00;6082778;29;20340;-73
2022/11/05 02:30:46;;;;;;;5.00;2.20;;;;;;;8.21;86.83;101207.97;6086743;29;22732;-72
2022/11/05 02:34:20;;;;;;;5.13;3.20;;;;;;;8.22;86.68;101211.53;6071769;29;20319;-73
2022/11/05 02:37:45;;;;;;;3.47;2.07;;;;;;;8.21;86.18;101207.13;6079127;29;20232;-73
2022/11/05 02:41:13;;;;;;;4.47;3.00;;;;;;;8.24;86.23;101206.91;6069490;29;20236;-74
2022/11/05 02:44:41;;;;;;;3.10;2.40;;;;;;;8.26;85.90;101199.63;6074962;29;20236;-72
2022/11/05 02:48:13;;;;;;;5.97;3.53;;;;;;;8.21;85.64;101199.94;6073026;29;20260;-73
2022/11/05 02:51:40;;;;;;;4.23;3.67;;;;;;;8.20;86.46;101210.78;6082176;29;20228;-72
2022/11/05 02:55:10;;;;;;;4.43;1.83;;;;;;;8.16;86.95;101209.28;6063417;29;20534;-73
2022/11/05 02:58:33;;;;;;;4.33;2.47;;;;;;;8.25;85.89;101208.59;6069367;29;20229;-74
2022/11/05 03:01:55;;;;;;;3.97;2.07;;;;;;;8.22;86.30;101212.38;6079263;29;20224;-74
2022/11/05 03:05:19;;;;;;;3.57;2.10;;;;;;;8.19;85.61;101201.00;6068205;29;20232;-73
2022/11/05 03:08:55;;;;;;;2.90;2.60;;;;;;;8.15;85.75;101212.94;6078584;29;20236;-73
2022/11/05 03:12:26;;;;;;;8.60;3.23;;;;;;;8.13;86.19;101209.50;6082871;29;20311;-73
2022/11/05 03:15:56;;;;;;;3.93;2.17;;;;;;;8.06;86.36;101212.66;6081703;29;20355;-73
2022/11/05 03:19:21;;;;;;;3.47;2.93;;;;;;;8.00;86.33;101218.47;6067448;29;20227;-73
2022/11/05 03:22:52;;;;;;;3.03;1.83;;;;;;;7.91;86.75;101227.19;6066902;29;20240;-73
2022/11/05 03:26:20;;;;;;;2.00;1.73;;;;;;;7.97;86.80;101226.72;6085629;29;20825;-74
2022/11/05 03:29:44;;;;;;;1.80;1.53;;;;;;;7.89;86.37;101234.47;6074292;29;20236;-73
2022/11/05 03:33:10;;;;;;;3.33;2.00;;;;;;;7.89;86.26;101236.31;6070057;29;20323;-73
2022/11/05 03:36:34;;;;;;;3.80;2.27;;;;;;;7.91;86.72;101239.72;6070905;29;20308;-73
2022/11/05 03:40:00;;;;;;;8.50;3.50;;;;;;;7.87;86.16;101239.09;6071256;29;20704;-73
2022/11/05 03:43:24;;;;;;;5.03;1.57;;;;;;;7.72;87.63;101240.19;6058456;29;20232;-73
2022/11/05 03:46:49;;;;;;;5.93;2.00;;;;;;;7.75;86.85;101241.81;6065905;29;20236;-73
2022/11/05 03:50:19;;;;;;;7.83;2.53;;;;;;;7.89;86.52;101252.41;6072197;29;20662;-73
2022/11/05 03:53:45;;;;;;;3.23;2.03;;;;;;;7.84;85.75;101255.41;6074707;29;20228;-73
2022/11/05 03:57:11;;;;;;;3.37;2.30;;;;;;;7.84;86.46;101257.25;6076746;29;20229;-72
2022/11/05 04:00:33;;;;;;;2.80;2.00;;;;;;;7.83;86.04;101263.59;6081065;29;20464;-73
2022/11/05 04:03:53;;;;;;;3.73;2.30;;;;;;;7.72;86.33;101258.09;6073591;29;20285;-72
2022/11/05 04:14:33;;;;;;;2.40;2.07;;;;;;;7.54;86.62;101254.91;6072797;29;20257;-74
2022/11/05 04:17:54;;;;;;;5.07;1.63;;;;;;;7.54;86.62;101257.59;6078824;29;20236;-74
2022/11/05 04:24:49;;;;;;;4.40;1.90;;;;;;;7.51;87.30;101265.84;6044724;29;20229;-74
2022/11/05 04:28:10;;;;;;;2.47;2.17;;;;;;;7.55;87.41;101272.72;6075390;29;20725;-73
2022/11/05 04:31:31;;;;;;;5.07;2.33;;;;;;;7.51;87.27;101281.09;6079202;29;20228;-74
2022/11/05 04:34:52;;;;;;;2.63;1.90;;;;;;;7.55;86.12;101286.13;6070128;29;20697;-73
2022/11/05 04:38:16;;;;;;;2.87;1.63;;;;;;;7.51;87.04;101276.56;6072861;29;20229;-71
2022/11/05 04:41:37;;;;;;;4.07;3.17;;;;;;;7.49;87.00;101285.72;6081458;29;20227;-70
2022/11/05 04:44:57;;;;;;;7.33;3.43;;;;;;;7.48;86.58;101274.13;6076098;29;20232;-70
2022/11/05 04:48:20;;;;;;;1.97;1.67;;;;;;;7.42;87.25;101282.59;6074699;29;20236;-70
2022/11/05 04:51:41;;;;;;;7.10;2.73;;;;;;;7.47;87.01;101287.66;6085897;29;20240;-70
2022/11/05 04:55:02;;;;;;;2.93;2.00;;;;;;;7.44;86.62;101288.72;6076211;29;20225;-71
2022/11/05 04:58:23;;;;;;;3.77;2.90;;;;;;;7.42;86.24;101296.00;6080673;29;20260;-70
2022/11/05 05:01:44;;;;;;;4.67;2.73;;;;;;;7.49;86.72;101299.97;6081758;29;20288;-71
2022/11/05 05:05:06;;;;;;;3.53;1.93;;;;;;;7.51;86.67;101292.66;6069654;29;20240;-70
2022/11/05 05:08:27;;;;;;;2.63;1.67;;;;;;;7.44;85.93;101302.13;6079829;29;20245;-70
2022/11/05 05:11:48;;;;;;;2.87;2.20;;;;;;;7.37;85.91;101295.47;6086662;29;20328;-71
2022/11/05 05:15:08;;;;;;;6.40;2.10;;;;;;;7.42;86.60;101296.00;6077518;29;22362;-71
2022/11/05 05:18:29;;;;;;;3.43;2.90;;;;;;;7.42;86.43;101295.16;6077806;29;20615;-70
2022/11/05 05:21:51;;;;;;;3.57;2.00;;;;;;;7.34;86.90;101289.47;6089070;29;20249;-70
2022/11/05 05:25:11;;;;;;;1.67;1.57;;;;;;;7.38;86.86;101290.97;6074140;29;20607;-70
2022/11/05 05:28:32;;;;;;;3.47;2.70;;;;;;;7.33;86.58;101304.69;6074987;29;20233;-69
2022/11/05 05:31:53;;;;;;;4.40;2.57;;;;;;;7.32;86.18;101294.06;6057974;29;20232;-71
2022/11/05 05:35:14;;;;;;;2.67;2.43;;;;;;;7.28;86.15;101301.44;6074258;29;20232;-70
2022/11/05 05:38:36;;;;;;;2.07;1.73;;;;;;;7.28;86.99;101305.00;6072285;29;20241;-71
2022/11/05 05:41:57;;;;;;;2.93;2.30;;;;;;;7.22;86.84;101312.59;6084619;29;20228;-71
2022/11/05 05:45:18;;;;;;;6.23;1.67;;;;;;;7.26;86.52;101311.41;6077536;29;20248;-70
2022/11/05 05:48:39;;;;;;;3.00;1.77;;;;;;;7.37;86.10;101306.19;6071023;29;20240;-71
2022/11/05 05:52:00;;;;;;;4.30;3.40;;;;;;;7.26;86.19;101317.63;6083429;29;20243;-71
2022/11/05 05:55:23;;;;;;;2.37;2.17;;;;;;;7.21;86.43;101324.28;6075488;29;20233;-70
2022/11/05 05:58:44;;;;;;;4.17;2.43;;;;;;;7.21;86.44;101325.16;6075747;29;20233;-70
2022/11/05 06:02:05;;;;;;;2.77;2.30;;;;;;;7.21;85.92;101330.53;6071356;29;20334;-71
2022/11/05 06:05:26;;;;;;;4.83;2.40;;;;;;;7.28;85.95;101332.78;6070036;29;20237;-70
2022/11/05 06:08:47;;;;;;;3.13;2.50;;;;;;;7.26;85.89;101336.41;6075076;29;20682;-71
2022/11/05 06:12:09;;;;;;;3.83;3.33;;;;;;;7.28;86.10;101340.81;6083914;29;20225;-70
2022/11/05 06:15:30;;;;;;;6.10;2.33;;;;;;;7.28;85.96;101346.19;6062056;29;20316;-69
2022/11/05 06:18:51;;;;;;;3.07;2.43;;;;;;;7.25;86.79;101347.25;6078402;29;20229;-70
2022/11/05 06:22:12;;;;;;;2.27;2.00;;;;;;;7.28;85.96;101355.06;6086006;29;20241;-70
2022/11/05 06:25:33;;;;;;;4.20;2.33;;;;;;;7.29;86.03;101359.47;6080876;29;20626;-70
2022/11/05 06:28:55;;;;;;;3.70;3.33;;;;;;;7.27;86.56;101356.06;6075984;29;20236;-70
2022/11/05 06:32:16;;;;;;;2.90;2.17;;;;;;;7.23;86.04;101355.41;6079028;29;20232;-71
2022/11/05 06:35:37;;;;;;;8.67;2.27;;;;;;;7.25;86.17;101357.97;6082808;29;20324;-70
2022/11/05 06:38:58;;;;;;;2.03;1.83;;;;;;;7.24;86.36;101359.78;6071994;29;22523;-71
2022/11/05 06:42:19;;;;;;;3.10;2.00;;;;;;;7.23;86.12;101362.59;6082849;29;20509;-70
2022/11/05 06:45:41;;;;;;;2.20;2.00;;;;;;;7.31;86.37;101364.72;6085319;29;20248;-70
2022/11/05 06:49:03;;;;;;;3.97;2.03;;;;;;;7.33;86.13;101376.22;6073991;29;20236;-72
2022/11/05 06:52:25;;;;;;;9.17;1.80;;;;;;;7.36;85.54;101376.03;6054665;29;20236;-71
2022/11/05 06:55:47;;;;;;;2.77;2.17;;;;;;;7.40;85.79;101374.84;6084231;29;20236;-71
2022/11/05 06:59:08;;;;;;;2.57;1.97;;;;;;;7.42;85.40;101371.09;6069077;29;20229;-69
2022/11/05 07:02:30;;;;;;;12.97;2.27;;;;;;;7.46;85.26;101380.66;6066581;29;20721;-71
2022/11/05 07:05:51;;;;;;;2.50;2.30;;;;;;;7.48;85.24;101377.88;6082151;29;20236;-71
2022/11/05 07:09:12;;;;;;;11.70;3.73;;;;;;;7.57;84.80;101386.13;6062961;29;20323;-70
2022/11/05 07:12:33;;;;;;;2.20;1.97;;;;;;;7.61;85.26;101390.34;6055263;29;20251;-70
2022/11/05 07:15:54;;;;;;;7.60;2.27;;;;;;;7.56;85.38;101396.97;6078493;29;20241;-70
2022/11/05 07:19:16;;;;;;;2.33;2.13;;;;;;;7.53;84.81;101397.22;6069994;29;20232;-73
2022/11/05 07:22:37;;;;;;;1.90;1.80;;;;;;;7.59;85.35;101399.47;6074375;29;20245;-73
2022/11/05 07:25:59;;;;;;;6.83;2.77;;;;;;;7.59;85.00;101404.84;6078078;29;20516;-70
2022/11/05 07:29:20;;;;;;;2.23;1.83;;;;;;;7.65;84.77;101405.28;6062087;29;20267;-71
2022/11/05 07:32:41;;;;;;;4.13;1.80;;;;;;;7.73;85.18;101410.13;6070270;29;20232;-71
2022/11/05 07:36:04;;;;;;;5.80;4.73;;;;;;;7.75;84.89;101410.88;6082655;29;20325;-70
2022/11/05 07:39:25;;;;;;;4.43;1.77;;;;;;;7.81;84.39;101415.81;6074954;29;20232;-70
2022/11/05 07:42:48;;;;;;;3.17;2.13;;;;;;;7.91;84.02;101422.25;6067893;29;20237;-70
2022/11/05 07:46:09;;;;;;;2.20;1.30;;;;;;;7.95;83.62;101421.06;6065234;29;20232;-72
2022/11/05 07:49:30;;;;;;;3.27;2.10;;;;;;;8.00;83.43;101430.56;6059292;29;20232;-71
2022/11/05 07:52:52;;;;;;;1.90;1.60;;;;;;;8.05;82.70;101425.72;6064011;29;20244;-72
2022/11/05 07:56:14;;;;;;;4.23;1.90;;;;;;;8.20;82.47;101429.16;6079628;29;20542;-71
2022/11/05 07:59:34;;;;;;;10.37;2.77;;;;;;;8.35;82.51;101427.25;6059862;29;20256;-71
2022/11/05 08:02:57;;;;;;;1.77;1.63;;;;;;;8.53;80.95;101429.47;6058956;29;20285;-71
2022/11/05 08:06:18;;;;;;;1.43;1.33;;;;;;;8.65;80.58;101425.94;6079745;29;20606;-72
2022/11/05 08:09:40;;;;;;;3.27;2.97;;;;;;;8.73;80.57;101412.78;6065913;29;20228;-72
2022/11/05 08:13:01;;;;;;;3.30;1.97;;;;;;;8.81;79.73;101420.28;6059294;29;20244;-71
2022/11/05 08:16:22;;;;;;;2.00;1.77;;;;;;;8.85;79.71;101419.97;6067856;29;20228;-71
2022/11/05 08:19:43;;;;;;;2.90;2.67;;;;;;;9.04;79.58;101422.16;6068277;29;20783;-71
2022/11/05 08:23:04;;;;;;;2.93;1.43;;;;;;;9.26;78.85;101418.75;6071101;29;21018;-71
2022/11/05 08:26:27;;;;;;;2.40;2.00;;;;;;;9.38;78.23;101425.88;6083123;29;20240;-71
2022/11/05 08:29:47;;;;;;;2.13;1.20;;;;;;;9.42;78.01;101438.13;6069236;29;20248;-71
2022/11/05 08:33:11;;;;;;;2.80;1.50;;;;;;;9.70;76.98;101440.44;6077071;29;20351;-71
2022/11/05 08:36:31;;;;;;;3.73;1.33;;;;;;;11.24;71.74;101445.13;6074555;29;20311;-74
2022/11/05 08:39:52;;;;;;;3.43;2.40;;;;;;;13.42;62.42;101426.81;6070298;29;20707;-73
2022/11/05 08:43:14;;;;;;;3.30;2.70;;;;;;;16.34;54.92;101428.56;6073225;29;20247;-73
2022/11/05 08:46:36;;;;;;;10.33;2.93;;;;;;;15.32;55.98;101431.00;6076586;29;20432;-73
2022/11/05 08:49:57;;;;;;;2.80;1.10;;;;;;;14.33;58.82;101432.59;6043203;29;20538;-70
2022/11/05 08:53:18;;;;;;;6.07;1.52;;;;;;;16.58;52.25;101434.19;6068093;29;20239;-72
2022/11/05 08:56:39;;;;;;;5.18;1.88;;;;;;;16.59;51.80;101437.78;6074203;29;20501;-74
2022/11/05 09:00:02;;;;;;;1.98;1.02;;;;;;;17.28;50.62;101440.31;6062352;29;20512;-74
2022/11/05 09:03:22;;;;;;;0.98;0.85;;;;;;;16.23;51.33;101433.44;6065499;29;20711;-74
2022/11/05 09:06:43;;;;;;;2.08;1.00;;;;;;;15.88;52.78;101435.19;6080219;29;20252;-74
2022/11/05 09:10:05;;;;;;;3.40;0.90;;;;;;;15.51;53.73;101439.06;6067794;29;20240;-75
2022/11/05 09:13:26;;;;;;;5.88;1.25;;;;;;;16.97;53.80;101429.13;6057315;29;20636;-70
2022/11/05 09:16:49;;;;;;;3.05;1.20;;;;;;;19.57;45.43;101432.34;6078741;29;20240;-77
2022/11/05 09:20:11;;;;;;;2.45;1.00;;;;;;;19.55;44.45;101442.59;6071871;29;20781;-73
2022/11/05 09:23:32;;;;;;;4.00;1.95;;;;;;;18.76;45.46;101451.81;6068157;29;20251;-76
2022/11/05 09:26:53;;;;;;;1.58;1.40;;;;;;;19.42;43.95;101445.09;6076689;29;20240;-68
2022/11/05 09:30:20;;;;;;;2.63;2.35;;;;;;;19.48;44.66;101453.44;6066727;29;20774;-71
2022/11/05 09:33:42;;;;;;;1.52;1.42;;;;;;;17.95;48.93;101455.63;6052006;29;20590;-74
2022/11/05 09:37:03;;;;;;;4.43;2.60;;;;;;;18.86;45.45;101444.28;6069630;29;20236;-69
2022/11/05 09:40:25;;;;;;;3.13;1.50;;;;;;;20.46;41.27;101438.81;6060752;29;20232;-75
2022/11/05 09:43:51;;;;;;;2.40;1.13;;;;;;;20.78;40.83;101451.31;6061922;29;20245;-74
2022/11/05 09:47:18;;;;;;;2.60;1.38;;;;;;;20.37;40.59;101456.38;6064533;29;20248;-76
2022/11/05 09:50:43;;;;;;;1.73;1.63;;;;;;;20.47;40.85;101462.44;6068756;29;20328;-78
2022/11/05 09:54:04;;;;;;;1.85;1.33;;;;;;;21.48;37.78;101459.91;6055234;29;20233;-74
2022/11/05 09:57:29;;;;;;;1.40;1.30;;;;;;;18.57;43.77;101468.59;6063154;29;20264;-73
2022/11/05 10:00:51;;;;;;;2.30;1.63;;;;;;;21.35;39.85;101467.97;6061177;29;20548;-76
2022/11/05 10:04:16;;;;;;;1.98;1.00;;;;;;;20.60;40.14;101473.63;6053413;29;20539;-76
2022/11/05 10:07:45;;;;;;;1.70;1.50;;;;;;;21.34;39.19;101471.78;6052621;29;20652;-76
2022/11/05 10:11:11;;;;;;;1.95;1.45;;;;;;;20.86;38.72;101467.66;6065383;29;20228;-76
2022/11/05 10:14:38;;;;;;;1.58;0.95;;;;;;;21.17;39.34;101470.28;6056124;29;20244;-73
2022/11/05 10:18:04;;;;;;;1.50;1.40;;;;;;;20.62;40.21;101473.41;6059581;29;20237;-73
2022/11/05 10:21:25;;;;;;;1.33;1.23;;;;;;;20.34;40.55;101480.56;6061028;29;20244;-72
2022/11/05 10:24:50;;;;;;;2.65;0.98;;;;;;;19.59;41.73;101482.25;6054793;29;20236;-74
2022/11/05 10:28:16;;;;;;;2.15;1.05;;;;;;;19.93;40.17;101488.19;6060071;29;21960;-74
2022/11/05 10:31:37;;;;;;;1.27;1.10;;;;;;;19.24;42.43;101488.19;6071143;29;20228;-72
2022/11/05 10:35:01;;;;;;;1.33;1.23;;;;;;;19.12;43.71;101493.22;6048860;29;20233;-74
2022/11/05 10:38:22;;;;;;;1.90;1.08;;;;;;;19.33;42.59;101496.22;6060772;29;20228;-73
2022/11/05 10:41:57;;;;;;;2.08;1.25;;;;;;;21.23;39.00;101481.34;6072391;29;20241;-76
2022/11/05 10:45:29;;;;;;;3.72;1.80;;;;;;;19.76;42.41;101481.97;6055444;29;20228;-74
2022/11/05 10:49:03;;;;;;;2.88;0.77;;;;;;;14.38;54.77;101509.00;6065842;29;20240;-73
2022/11/05 10:52:26;;;;;;;3.30;1.60;;;;;;;13.85;57.93;101512.25;6073364;29;20240;-74
2022/11/05 10:55:49;;;;;;;3.28;1.70;;;;;;;14.41;57.85;101505.97;6078096;29;20607;-76
2022/11/05 10:59:22;;;;;;;4.05;1.73;;;;;;;18.66;46.64;101494.88;6060934;29;20237;-76
2022/11/05 11:02:43;;;;;;;3.05;1.55;;;;;;;22.14;39.39;101494.44;6066432;29;20757;-76
2022/11/05 11:06:23;;;;;;;1.35;1.25;;;;;;;22.05;37.70;101492.91;6070479;29;20383;-76
2022/11/05 11:09:48;;;;;;;1.98;1.27;;;;;;;21.36;40.31;101489.72;6071599;29;20240;-77
2022/11/05 11:13:19;;;;;;;3.92;1.23;;;;;;;17.34;47.47;101492.28;6059829;29;20236;-75
2022/11/05 11:16:45;;;;;;;4.82;1.95;;;;;;;16.74;49.45;101491.50;6074527;29;20323;-78
2022/11/05 11:20:20;;;;;;;1.67;1.20;;;;;;;19.83;42.25;101495.78;6064683;29;20236;-74
2022/11/05 11:23:43;;;;;;;4.95;1.10;;;;;;;18.23;45.28;101496.06;6067033;29;20528;-77
2022/11/05 11:27:06;;;;;;;1.80;1.63;;;;;;;20.33;40.05;101496.13;6080031;29;20229;-73
2022/11/05 11:30:27;;;;;;;1.05;0.85;;;;;;;20.58;40.76;101491.28;6058841;29;20241;-74
2022/11/05 11:33:57;;;;;;;3.17;1.35;;;;;;;19.72;42.88;101499.78;6050334;29;20235;-77
2022/11/05 11:37:23;;;;;;;2.30;1.20;;;;;;;20.34;40.74;101492.34;6079759;29;20251;-76
2022/11/05 11:40:45;;;;;;;2.58;1.42;;;;;;;19.81;40.81;101490.50;6080877;29;20327;-75
2022/11/05 11:44:12;;;;;;;3.13;0.95;;;;;;;19.34;41.45;101489.72;6066768;29;20237;-76
2022/11/05 11:47:34;;;;;;;1.35;0.98;;;;;;;17.83;45.78;101482.41;6066358;29;20263;-76
2022/11/05 11:50:57;;;;;;;2.72;1.15;;;;;;;18.28;45.64;101487.34;6067593;29;20227;-75
2022/11/05 11:54:20;;;;;;;1.50;1.10;;;;;;;20.52;41.54;101484.66;6062504;29;20294;-75
2022/11/05 11:57:43;;;;;;;4.70;1.77;;;;;;;17.62;45.86;101494.78;6058031;29;20228;-74
2022/11/05 12:01:22;;;;;;;1.42;1.30;;;;;;;15.25;52.85;101490.53;6076556;29;21921;-74
2022/11/05 12:05:16;;;;;;;2.55;1.75;;;;;;;15.81;52.74;101493.06;6057888;29;20236;-73
2022/11/05 12:08:48;;;;;;;3.50;1.20;;;;;;;14.66;55.20;101493.66;6032203;29;20246;-74
2022/11/05 12:12:12;;;;;;;1.80;1.40;;;;;;;14.89;54.55;101500.44;6080823;29;20240;-73
2022/11/05 12:15:43;;;;;;;2.80;0.80;;;;;;;14.25;57.13;101505.69;6068514;29;20228;-74
2022/11/05 12:19:16;;;;;;;1.40;1.30;;;;;;;15.16;55.57;101502.31;6063445;29;20235;-77
2022/11/05 12:22:53;;;;;;;3.33;2.03;;;;;;;14.98;57.91;101495.94;6065711;29;20232;-75
2022/11/05 12:26:24;;;;;;;1.80;1.60;;;;;;;14.16;58.61;101495.69;6076006;29;20224;-72
2022/11/05 12:29:53;;;;;;;8.57;2.40;;;;;;;14.63;57.07;101488.50;6066411;29;20264;-72
2022/11/05 12:33:25;;;;;;;4.60;1.00;;;;;;;14.95;56.81;101488.97;6059349;29;20236;-72
2022/11/05 12:37:04;;;;;;;2.97;1.57;;;;;;;15.68;55.07;101496.19;6072153;29;20579;-71
2022/11/05 12:40:42;;;;;;;6.37;2.37;;;;;;;14.65;57.63;101499.22;6066242;29;20229;-72
2022/11/05 12:44:20;;;;;;;2.63;1.13;;;;;;;14.59;58.28;101497.09;6071556;29;20244;-75
2022/11/05 12:47:56;;;;;;;1.33;1.23;;;;;;;14.09;59.17;101493.72;6068509;29;20623;-73
2022/11/05 12:51:30;;;;;;;1.37;1.20;;;;;;;14.66;60.43;101488.22;6075920;29;21493;-71
2022/11/05 12:55:06;;;;;;;1.47;1.37;;;;;;;14.20;59.48;101488.13;6051543;29;20892;-72
2022/11/05 12:58:31;;;;;;;1.63;1.27;;;;;;;13.41;61.51;101491.94;6022232;29;20271;-74
2022/11/05 13:01:58;;;;;;;5.53;1.17;;;;;;;13.38;61.72;101489.50;6059730;29;20283;-72
2022/11/05 13:05:26;;;;;;;1.90;1.80;;;;;;;13.28;62.35;101496.75;6058180;29;20233;-73
2022/11/05 13:08:51;;;;;;;1.40;1.10;;;;;;;13.17;62.83;101492.31;6059696;29;20729;-72
2022/11/05 13:12:15;;;;;;;2.03;1.40;;;;;;;13.23;63.18;101493.59;6075877;29;21977;-72
2022/11/05 13:15:39;;;;;;;1.57;1.47;;;;;;;13.43;61.96;101506.22;6050353;29;20248;-72
2022/11/05 13:19:06;;;;;;;3.83;2.03;;;;;;;13.22;62.58;101486.47;6065074;29;20327;-74
2022/11/05 13:22:36;;;;;;;1.83;1.37;;;;;;;13.45;61.68;101493.38;6068462;29;20228;-74
2022/11/05 13:26:00;;;;;;;5.53;2.47;;;;;;;13.27;62.53;101490.47;6087627;29;20857;-71
2022/11/05 13:29:26;;;;;;;3.03;1.27;;;;;;;13.09;62.75;101484.03;6083625;29;20236;-71
2022/11/05 13:32:53;;;;;;;1.50;1.40;;;;;;;13.17;63.15;101486.03;6084606;29;20240;-75
2022/11/05 13:40:03;;;;;;;1.97;1.57;;;;;;;13.18;62.90;101483.22;6067146;29;20603;-73
2022/11/05 13:43:42;;;;;;;2.43;1.60;;;;;;;13.10;64.05;101488.44;6069090;29;20236;-73
2022/11/05 13:47:21;;;;;;;2.97;2.00;;;;;;;12.86;64.20;101474.34;6083529;29;20631;-73
2022/11/05 13:51:00;;;;;;;3.13;1.50;;;;;;;12.77;65.04;101477.88;6090215;29;20228;-73
2022/11/05 13:54:51;;;;;;;5.17;2.57;;;;;;;12.99;65.03;101476.81;6079625;29;20229;-76
2022/11/05 13:58:35;;;;;;;2.40;2.30;;;;;;;12.74;65.55;101481.72;6061588;29;20590;-73
2022/11/05 14:01:58;;;;;;;4.70;1.67;;;;;;;12.66;66.13;101483.38;6088117;29;20225;-75
2022/11/05 14:05:28;;;;;;;3.53;3.20;;;;;;;12.74;66.10;101488.97;6079699;29;20240;-76
2022/11/05 14:08:49;;;;;;;2.10;1.40;;;;;;;12.57;67.20;101484.19;6073859;29;20232;-76
2022/11/05 14:12:20;;;;;;;2.10;1.57;;;;;;;12.36;67.14;101483.34;6088769;29;20232;-77
2022/11/05 14:15:55;;;;;;;1.77;1.53;;;;;;;12.44;67.94;101484.38;6086876;29;20232;-76
2022/11/05 14:19:34;;;;;;;1.83;1.50;;;;;;;12.25;68.65;101488.81;6067753;29;20236;-78
2022/11/05 14:23:29;;;;;;;1.70;1.57;;;;;;;12.52;68.01;101481.00;6079286;29;20269;-77
2022/11/05 14:27:23;;;;;;;2.50;2.30;;;;;;;12.42;67.78;101485.50;6087789;29;20896;-83
2022/11/05 14:30:47;;;;;;;5.13;3.33;;;;;;;12.39;68.12;101481.22;6087814;29;20260;-83
2022/11/05 14:34:22;;;;;;;1.97;1.40;;;;;;;12.25;68.69;101481.56;6080715;29;20256;-78
2022/11/05 14:37:52;;;;;;;3.47;2.43;;;;;;;12.45;68.06;101496.94;6083317;29;20258;-80
2022/11/05 14:41:13;;;;;;;4.47;1.43;;;;;;;12.19;68.58;101498.31;6083561;29;20592;-76
2022/11/05 14:44:35;;;;;;;2.53;1.70;;;;;;;12.02;69.11;101499.75;6078637;29;20236;-78
2022/11/05 14:48:00;;;;;;;2.07;1.90;;;;;;;12.05;69.53;101495.94;6081387;29;20276;-76
2022/11/05 14:51:28;;;;;;;4.30;3.97;;;;;;;12.03;68.98;101496.06;6092388;29;20237;-82
2022/11/05 14:54:52;;;;;;;2.13;1.90;;;;;;;11.93;70.28;101505.09;6084337;29;20228;-80
2022/11/05 14:58:37;;;;;;;1.20;1.20;;;;;;;11.91;70.34;101515.16;6068467;29;20241;-76
2022/11/05 15:02:01;;;;;;;2.63;1.90;;;;;;;11.89;70.84;101506.34;6060375;29;20232;-81
2022/11/05 15:05:51;;;;;;;3.50;1.93;;;;;;;11.76;71.08;101513.75;6060820;29;20535;-80
2022/11/05 15:09:33;;;;;;;2.80;2.10;;;;;;;11.73;71.30;101519.38;6041430;29;20323;-76
2022/11/05 15:13:01;;;;;;;1.40;1.30;;;;;;;11.61;71.25;101513.13;6078456;29;20824;-75
2022/11/05 15:16:25;;;;;;;3.50;1.80;;;;;;;11.63;71.90;101511.16;6092090;29;20610;-76
2022/11/05 15:19:47;;;;;;;3.23;1.93;;;;;;;11.61;71.89;101515.84;6082567;29;20819;-75
2022/11/05 15:23:14;;;;;;;2.43;1.77;;;;;;;11.64;72.27;101515.56;6078191;29;20244;-76
2022/11/05 15:26:46;;;;;;;1.90;1.63;;;;;;;11.60;72.29;101515.97;6088635;29;20236;-80
2022/11/05 15:30:18;;;;;;;5.10;2.07;;;;;;;11.59;71.54;101511.53;6078741;29;20228;-80
2022/11/05 15:33:41;;;;;;;1.93;1.67;;;;;;;11.40;72.55;101516.75;6059678;29;20523;-78
2022/11/05 15:37:19;;;;;;;5.60;2.57;;;;;;;11.44;72.46;101512.81;6084877;29;20261;-86
2022/11/05 15:40:42;;;;;;;3.40;2.93;;;;;;;11.34;73.06;101519.94;6072653;29;20248;-78
2022/11/05 15:44:03;;;;;;;1.80;1.43;;;;;;;11.35;73.38;101521.69;6079429;29;20240;-83
2022/11/05 15:47:26;;;;;;;2.30;1.70;;;;;;;11.39;72.96;101523.97;6088105;29;20622;-80
2022/11/05 15:50:46;;;;;;;3.37;2.90;;;;;;;11.35;73.30;101518.97;6091002;29;20236;-78
2022/11/05 15:54:20;;;;;;;3.47;2.43;;;;;;;11.23;73.88;101521.69;6073569;29;20241;-79
2022/11/05 15:57:46;;;;;;;1.70;1.50;;;;;;;11.32;73.83;101525.47;6078747;29;20957;-81
2022/11/05 16:01:07;;;;;;;4.00;2.23;;;;;;;11.17;74.35;101522.19;6081978;29;20237;-81
2022/11/05 16:04:31;;;;;;;2.07;1.97;;;;;;;11.12;74.05;101524.38;6073749;29;20229;-75
2022/11/05 16:07:53;;;;;;;4.53;2.10;;;;;;;11.10;74.47;101515.56;6073358;29;20233;-80
2022/11/05 16:11:22;;;;;;;3.80;1.63;;;;;;;11.08;74.83;101530.13;6076065;29;20228;-79
2022/11/05 16:14:55;;;;;;;1.80;1.70;;;;;;;11.14;74.32;101516.16;6079689;29;20228;-74
2022/11/05 16:18:21;;;;;;;2.63;2.07;;;;;;;11.07;74.38;101523.91;6059133;29;20632;-75
2022/11/05 16:21:53;;;;;;;4.20;2.27;;;;;;;11.08;74.59;101513.97;6078683;29;20236;-75
2022/11/05 16:25:28;;;;;;;4.93;3.10;;;;;;;11.01;74.83;101518.97;6077530;29;20236;-75
2022/11/05 16:28:52;;;;;;;3.63;1.90;;;;;;;11.03;74.30;101514.34;6074980;29;20236;-75
2022/11/05 16:32:18;;;;;;;8.13;2.27;;;;;;;11.03;74.46;101525.16;6082432;29;20237;-78
2022/11/05 16:35:45;;;;;;;2.57;2.03;;;;;;;11.07;74.88;101523.91;6081780;29;20229;-80
2022/11/05 16:39:09;;;;;;;2.40;2.20;;;;;;;11.06;74.45;101524.00;6066896;29;20289;-83
2022/11/05 16:42:39;;;;;;;4.60;2.07;;;;;;;10.97;75.14;101522.06;6076873;29;20248;-76